createdAt,value
2022-12-04T05:30:56.195Z,0.85
2022-12-04T05:31:56.153Z,0.90
2022-12-04T05:32:56.145Z,0.89
2022-12-04T05:33:56.116Z,0.89
2022-12-04T05:34:56.118Z,0.89
2022-12-04T05:35:56.095Z,0.90
2022-12-04T05:36:56.087Z,0.89
2022-12-04T05:37:56.085Z,0.88
2022-12-04T05:38:56.064Z,0.89
2022-12-04T05:39:56.380Z,0.90
2022-12-04T05:40:56.043Z,0.90
2022-12-04T05:41:56.015Z,0.90
2022-12-04T05:42:56.026Z,0.90
2022-12-04T05:43:55.993Z,0.90
2022-12-04T05:45:03.066Z,0.89
2022-12-04T05:45:55.978Z,0.89
2022-12-04T05:46:56.087Z,0.88
2022-12-04T05:47:55.956Z,0.88
2022-12-04T05:48:55.944Z,0.89
2022-12-04T05:49:56.214Z,0.88
2022-12-04T05:50:55.921Z,0.89
2022-12-04T05:51:55.927Z,0.86
2022-12-04T05:52:55.903Z,0.89
2022-12-04T05:53:55.904Z,0.88
2022-12-04T05:54:55.882Z,0.90
2022-12-04T05:55:55.844Z,0.89
2022-12-04T05:56:55.835Z,0.88
2022-12-04T05:57:55.824Z,0.88
2022-12-04T05:58:55.823Z,0.85
2022-12-04T05:59:56.093Z,0.85
2022-12-04T06:00:55.808Z,0.85
2022-12-04T06:01:55.824Z,0.86
2022-12-04T06:02:55.848Z,0.86
2022-12-04T06:03:55.771Z,0.85
2022-12-04T06:04:55.782Z,0.85
2022-12-04T06:05:55.724Z,0.86
2022-12-04T06:06:55.712Z,0.88
2022-12-04T06:07:55.779Z,0.86
2022-12-04T06:08:55.680Z,0.86
2022-12-04T06:09:56.050Z,0.85
2022-12-04T06:10:55.680Z,0.86
2022-12-04T06:11:55.649Z,0.86
2022-12-04T06:12:55.659Z,0.85
2022-12-04T06:13:55.609Z,0.83
2022-12-04T06:14:55.610Z,0.83
2022-12-04T06:15:55.639Z,0.83
2022-12-04T06:16:55.645Z,0.85
2022-12-04T06:17:55.622Z,0.85
2022-12-04T06:18:55.560Z,0.86
2022-12-04T06:19:55.972Z,0.86
2022-12-04T06:20:55.580Z,0.86
2022-12-04T06:21:55.520Z,0.86
2022-12-04T06:22:55.527Z,0.86
2022-12-04T06:23:55.512Z,0.86
2022-12-04T06:24:55.493Z,0.88
2022-12-04T06:25:56.351Z,0.89
2022-12-04T06:27:26.271Z,0.88
2022-12-04T06:27:56.464Z,0.90
2022-12-04T06:28:55.432Z,0.90
2022-12-04T06:29:55.861Z,0.92
2022-12-04T06:30:55.435Z,0.94
2022-12-04T06:31:55.549Z,0.94
2022-12-04T06:32:55.388Z,0.92
2022-12-04T06:33:55.429Z,0.96
2022-12-04T06:34:55.358Z,0.92
2022-12-04T06:35:55.364Z,0.90
2022-12-04T06:36:55.324Z,0.92
2022-12-04T06:37:55.343Z,0.90
2022-12-04T06:38:55.315Z,0.90
2022-12-04T06:39:55.711Z,0.92
2022-12-04T06:40:55.321Z,0.92
2022-12-04T06:41:55.281Z,0.94
2022-12-04T06:42:55.282Z,0.96
2022-12-04T06:43:55.283Z,0.97
2022-12-04T06:44:55.313Z,0.96
2022-12-04T06:45:55.281Z,0.97
2022-12-04T06:46:55.213Z,0.98
2022-12-04T06:47:55.262Z,0.97
2022-12-04T06:48:55.215Z,0.97
2022-12-04T06:49:55.365Z,0.98
2022-12-04T06:50:55.153Z,0.98
2022-12-04T06:51:55.145Z,0.98
2022-12-04T06:52:55.130Z,1.00
2022-12-04T06:53:55.190Z,0.98
2022-12-04T06:54:55.217Z,1.00
2022-12-04T06:55:55.108Z,0.98
2022-12-04T06:56:55.082Z,1.00
2022-12-04T06:57:55.061Z,1.01
2022-12-04T06:58:55.092Z,1.03
2022-12-04T06:59:55.469Z,1.03
2022-12-04T07:00:55.110Z,1.04
2022-12-04T07:01:55.105Z,1.06
2022-12-04T07:02:55.054Z,1.04
2022-12-04T07:03:55.027Z,1.03
2022-12-04T07:04:54.978Z,1.03
2022-12-04T07:05:54.980Z,1.03
2022-12-04T07:06:54.955Z,1.04
2022-12-04T07:07:54.996Z,1.06
2022-12-04T07:08:54.952Z,1.04
2022-12-04T07:09:55.239Z,1.06
2022-12-04T07:10:59.179Z,1.07
2022-12-04T07:11:54.900Z,1.08
2022-12-04T07:12:54.869Z,1.08
2022-12-04T07:13:54.868Z,1.12
2022-12-04T07:14:54.845Z,1.10
2022-12-04T07:15:54.844Z,1.10
2022-12-04T07:16:54.889Z,1.07
2022-12-04T07:17:54.823Z,1.07
2022-12-04T07:18:54.804Z,1.06
2022-12-04T07:19:55.081Z,1.04
2022-12-04T07:20:54.764Z,1.06
2022-12-04T07:21:54.762Z,1.06
2022-12-04T07:22:54.745Z,1.07
2022-12-04T07:23:54.750Z,1.07
2022-12-04T07:24:54.729Z,1.07
2022-12-04T07:25:54.703Z,1.07
2022-12-04T07:26:54.701Z,1.07
2022-12-04T07:27:54.685Z,1.07
2022-12-04T07:28:54.675Z,1.08
2022-12-04T07:29:54.995Z,1.08
2022-12-04T07:30:54.648Z,1.08
2022-12-04T07:31:54.678Z,1.08
2022-12-04T07:32:54.611Z,1.12
2022-12-04T07:33:54.647Z,1.08
2022-12-04T07:34:54.591Z,1.12
2022-12-04T07:35:54.581Z,1.12
2022-12-04T07:36:54.571Z,1.12
2022-12-04T07:37:54.580Z,1.12
2022-12-04T07:38:54.561Z,1.76
2022-12-04T07:39:54.792Z,2.92
2022-12-04T07:40:54.519Z,3.36
2022-12-04T07:41:54.510Z,4.03
2022-12-04T07:42:54.490Z,4.65
2022-12-04T07:43:54.488Z,4.98
2022-12-04T07:44:54.484Z,5.09
2022-12-04T07:45:54.547Z,4.83
2022-12-04T07:46:54.439Z,4.51
2022-12-04T07:47:54.436Z,4.25
2022-12-04T07:48:54.418Z,3.82
2022-12-04T07:49:54.723Z,3.53
2022-12-04T07:50:54.387Z,3.34
2022-12-04T07:51:54.387Z,3.10
2022-12-04T07:52:54.356Z,3.27
2022-12-04T07:53:54.378Z,3.20
2022-12-04T07:54:54.360Z,3.16
2022-12-04T07:55:54.366Z,3.39
2022-12-04T07:56:54.332Z,3.33
2022-12-04T07:57:54.316Z,3.16
2022-12-04T07:58:54.306Z,3.28
2022-12-04T07:59:54.488Z,3.47
2022-12-04T08:00:54.301Z,3.36
2022-12-04T08:01:54.390Z,3.23
2022-12-04T08:02:54.257Z,2.95
2022-12-04T08:03:54.263Z,2.92
2022-12-04T08:04:54.248Z,3.06
2022-12-04T08:05:54.206Z,3.49
2022-12-04T08:06:54.185Z,3.43
2022-12-04T08:07:54.203Z,3.07
2022-12-04T08:08:54.172Z,2.73
2022-12-04T08:09:54.467Z,2.46
2022-12-04T08:10:54.133Z,2.52
2022-12-04T08:11:54.127Z,2.61
2022-12-04T08:12:54.113Z,2.67
2022-12-04T08:13:54.142Z,2.61
2022-12-04T08:14:54.100Z,2.44
2022-12-04T08:15:54.092Z,2.37
2022-12-04T08:16:54.185Z,2.51
2022-12-04T08:17:54.071Z,2.53
2022-12-04T08:18:54.062Z,2.66
2022-12-04T08:19:54.401Z,2.73
2022-12-04T08:20:54.012Z,2.71
2022-12-04T08:21:54.016Z,2.48
2022-12-04T08:22:53.991Z,2.63
2022-12-04T08:23:53.980Z,2.58
2022-12-04T08:24:53.950Z,2.51
2022-12-04T08:25:53.952Z,2.44
2022-12-04T08:26:53.950Z,2.49
2022-12-04T08:27:53.929Z,2.37
2022-12-04T08:28:53.927Z,2.45
2022-12-04T08:29:54.168Z,2.61
2022-12-04T08:30:53.955Z,2.59
2022-12-04T08:31:53.878Z,2.53
2022-12-04T08:32:53.860Z,2.52
2022-12-04T08:33:53.881Z,2.63
2022-12-04T08:34:55.831Z,2.44
2022-12-04T08:35:53.818Z,2.10
2022-12-04T08:36:53.799Z,1.93
2022-12-04T08:37:53.795Z,1.85
2022-12-04T08:38:53.796Z,1.79
2022-12-04T08:39:54.059Z,1.76
2022-12-04T08:40:53.761Z,1.73
2022-12-04T08:41:56.968Z,1.72
2022-12-04T08:42:53.737Z,1.71
2022-12-04T08:43:53.745Z,1.71
2022-12-04T08:44:53.717Z,1.68
2022-12-04T08:45:53.729Z,1.68
2022-12-04T08:46:53.675Z,1.69
2022-12-04T08:47:53.655Z,1.69
2022-12-04T08:48:53.657Z,1.65
2022-12-04T08:49:54.059Z,1.72
2022-12-04T08:50:53.635Z,1.69
2022-12-04T08:51:53.614Z,1.71
2022-12-04T08:52:53.614Z,1.71
2022-12-04T08:53:53.582Z,1.71
2022-12-04T08:54:53.603Z,1.73
2022-12-04T08:55:53.564Z,1.73
2022-12-04T08:56:53.563Z,1.73
2022-12-04T08:57:53.572Z,1.73
2022-12-04T08:58:53.532Z,1.73
2022-12-04T08:59:53.986Z,1.75
2022-12-04T09:00:53.509Z,1.75
2022-12-04T09:01:53.592Z,1.75
2022-12-04T09:02:53.474Z,1.76
2022-12-04T09:03:53.538Z,1.78
2022-12-04T09:04:53.491Z,1.79
2022-12-04T09:05:53.431Z,1.79
2022-12-04T09:06:53.448Z,1.78
2022-12-04T09:07:53.500Z,1.79
2022-12-04T09:08:53.452Z,1.80
2022-12-04T09:09:53.419Z,1.82
2022-12-04T09:10:53.420Z,1.83
2022-12-04T09:11:53.349Z,1.85
2022-12-04T09:12:53.354Z,1.85
2022-12-04T09:13:53.330Z,1.87
2022-12-04T09:14:53.417Z,1.89
2022-12-04T09:15:53.353Z,1.89
2022-12-04T09:16:53.328Z,1.87
2022-12-04T09:17:53.313Z,1.83
2022-12-04T09:18:53.319Z,1.85
2022-12-04T09:19:57.874Z,1.82
2022-12-04T09:20:54.248Z,1.82
2022-12-04T09:21:53.238Z,1.85
2022-12-04T09:23:04.130Z,1.83
2022-12-04T09:23:54.196Z,1.85
2022-12-04T09:24:53.206Z,1.87
2022-12-04T09:25:53.178Z,1.89
2022-12-04T09:26:53.184Z,1.89
2022-12-04T09:27:53.155Z,1.89
2022-12-04T09:28:53.156Z,1.89
2022-12-04T09:29:53.527Z,1.89
2022-12-04T09:30:53.148Z,1.87
2022-12-04T09:31:53.113Z,1.87
2022-12-04T09:32:53.095Z,1.83
2022-12-04T09:33:53.084Z,1.82
2022-12-04T09:34:53.074Z,1.82
2022-12-04T09:35:53.044Z,1.80
2022-12-04T09:36:53.048Z,1.80
2022-12-04T09:37:53.045Z,1.80
2022-12-04T09:38:53.013Z,1.80
2022-12-04T09:39:53.385Z,1.82
2022-12-04T09:40:52.984Z,1.82
2022-12-04T09:41:52.979Z,1.83
2022-12-04T09:42:52.965Z,1.87
2022-12-04T09:43:52.948Z,1.89
2022-12-04T09:44:52.975Z,1.91
2022-12-04T09:45:52.952Z,1.91
2022-12-04T09:46:53.012Z,1.93
2022-12-04T09:47:52.900Z,1.91
2022-12-04T09:48:52.892Z,1.90
2022-12-04T09:49:52.998Z,1.90
2022-12-04T09:50:52.862Z,1.91
2022-12-04T09:51:52.840Z,1.94
2022-12-04T09:52:52.838Z,1.94
2022-12-04T09:53:52.831Z,1.98
2022-12-04T09:54:52.841Z,1.99
2022-12-04T09:55:52.792Z,1.98
2022-12-04T09:56:52.788Z,1.99
2022-12-04T09:57:57.082Z,1.98
2022-12-04T09:58:53.759Z,2.01
2022-12-04T09:59:53.015Z,2.01
2022-12-04T10:00:52.740Z,1.98
2022-12-04T10:01:52.718Z,2.01
2022-12-04T10:02:52.817Z,2.02
2022-12-04T10:03:52.756Z,2.04
2022-12-04T10:04:52.689Z,2.04
2022-12-04T10:05:52.699Z,2.06
2022-12-04T10:06:52.658Z,2.06
2022-12-04T10:07:52.681Z,2.04
2022-12-04T10:08:52.627Z,2.08
2022-12-04T10:09:52.786Z,2.09
2022-12-04T10:10:52.627Z,2.12
2022-12-04T10:11:52.587Z,2.09
2022-12-04T10:12:52.583Z,2.08
2022-12-04T10:13:52.566Z,2.06
2022-12-04T10:14:52.584Z,2.09
2022-12-04T10:15:52.580Z,2.09
2022-12-04T10:16:52.545Z,2.10
2022-12-04T10:17:52.516Z,2.13
2022-12-04T10:18:52.513Z,2.13
2022-12-04T10:19:52.630Z,2.16
2022-12-04T10:20:52.505Z,2.15
2022-12-04T10:21:52.475Z,2.17
2022-12-04T10:22:52.497Z,2.16
2022-12-04T10:23:52.475Z,2.16
2022-12-04T10:24:52.443Z,2.16
2022-12-04T10:25:52.444Z,2.16
2022-12-04T10:26:52.412Z,2.16
2022-12-04T10:27:52.383Z,2.16
2022-12-04T10:28:55.384Z,2.17
2022-12-04T10:29:52.362Z,2.17
2022-12-04T10:30:52.445Z,2.17
2022-12-04T10:31:52.342Z,2.17
2022-12-04T10:32:52.324Z,2.19
2022-12-04T10:33:52.312Z,2.19
2022-12-04T10:34:52.301Z,2.20
2022-12-04T10:35:52.329Z,2.26
2022-12-04T10:36:52.271Z,2.23
2022-12-04T10:37:52.261Z,2.26
2022-12-04T10:38:52.251Z,2.26
2022-12-04T10:39:52.254Z,2.27
2022-12-04T10:40:52.231Z,2.26
2022-12-04T10:41:52.238Z,2.27
2022-12-04T10:42:52.198Z,2.27
2022-12-04T10:43:52.180Z,2.26
2022-12-04T10:44:52.168Z,2.23
2022-12-04T10:45:52.170Z,2.23
2022-12-04T10:46:52.254Z,2.26
2022-12-04T10:47:52.131Z,2.23
2022-12-04T10:48:52.119Z,2.26
2022-12-04T10:49:52.108Z,2.23
2022-12-04T10:50:52.110Z,2.27
2022-12-04T10:51:52.077Z,2.28
2022-12-04T10:52:52.071Z,2.28
2022-12-04T10:53:52.069Z,2.30
2022-12-04T10:54:52.099Z,2.28
2022-12-04T10:55:52.048Z,2.30
2022-12-04T10:56:52.016Z,2.30
2022-12-04T10:57:52.036Z,2.28
2022-12-04T10:58:51.997Z,2.27
2022-12-04T10:59:51.979Z,2.30
2022-12-04T11:00:51.996Z,2.30
2022-12-04T11:01:52.011Z,2.31
2022-12-04T11:02:51.967Z,2.31
2022-12-04T11:03:51.934Z,2.34
2022-12-04T11:04:51.924Z,2.33
2022-12-04T11:05:51.911Z,2.34
2022-12-04T11:06:51.895Z,2.35
2022-12-04T11:07:51.948Z,2.35
2022-12-04T11:08:51.865Z,2.37
2022-12-04T11:09:51.854Z,2.37
2022-12-04T11:10:51.862Z,2.38
2022-12-04T11:11:51.832Z,2.37
2022-12-04T11:12:51.813Z,2.41
2022-12-04T11:13:51.804Z,2.40
2022-12-04T11:14:51.791Z,2.44
2022-12-04T11:15:51.839Z,2.40
2022-12-04T11:16:51.792Z,2.38
2022-12-04T11:17:51.754Z,2.40
2022-12-04T11:18:51.732Z,2.41
2022-12-04T11:19:51.731Z,2.41
2022-12-04T11:20:51.724Z,2.45
2022-12-04T11:21:51.723Z,2.48
2022-12-04T11:22:51.695Z,2.45
2022-12-04T11:23:51.683Z,2.48
2022-12-04T11:24:51.668Z,2.51
2022-12-04T11:25:51.660Z,2.48
2022-12-04T11:26:51.641Z,2.48
2022-12-04T11:27:51.630Z,2.46
2022-12-04T11:28:51.610Z,2.46
2022-12-04T11:29:51.599Z,2.49
2022-12-04T11:30:51.588Z,2.51
2022-12-04T11:31:51.618Z,2.53
2022-12-04T11:32:51.559Z,2.55
2022-12-04T11:33:51.549Z,2.52
2022-12-04T11:34:51.547Z,2.52
2022-12-04T11:35:51.543Z,2.51
2022-12-04T11:36:51.568Z,2.49
2022-12-04T11:37:51.508Z,2.51
2022-12-04T11:38:51.527Z,2.52
2022-12-04T11:39:51.477Z,2.52
2022-12-04T11:40:51.457Z,2.53
2022-12-04T11:41:51.457Z,2.53
2022-12-04T11:42:51.437Z,2.56
2022-12-04T11:43:54.140Z,2.55
2022-12-04T11:46:01.292Z,2.55
2022-12-04T11:47:01.366Z,2.52
2022-12-04T11:48:01.275Z,2.55
2022-12-04T11:49:01.242Z,2.53
2022-12-04T11:50:01.371Z,2.53
2022-12-04T11:51:01.213Z,2.55
2022-12-04T11:52:01.231Z,2.55
2022-12-04T11:53:01.200Z,2.56
2022-12-04T11:54:01.182Z,2.58
2022-12-04T11:55:01.202Z,2.59
2022-12-04T11:56:01.156Z,2.58
2022-12-04T11:57:01.160Z,2.59
2022-12-04T11:58:01.129Z,2.59
2022-12-04T11:59:01.130Z,2.58
2022-12-04T12:00:01.101Z,2.61
2022-12-04T12:01:01.089Z,2.61
2022-12-04T12:02:01.249Z,2.64
2022-12-04T12:03:01.215Z,2.63
2022-12-04T12:04:01.080Z,2.63
2022-12-04T12:05:01.041Z,2.63
2022-12-04T12:06:01.028Z,2.63
2022-12-04T12:07:01.019Z,2.64
2022-12-04T12:08:03.278Z,2.63
2022-12-04T12:09:01.013Z,2.66
2022-12-04T12:10:00.977Z,2.66
2022-12-04T12:11:00.966Z,2.64
2022-12-04T12:12:00.950Z,2.63
2022-12-04T12:13:00.937Z,2.64
2022-12-04T12:14:00.938Z,2.66
2022-12-04T12:15:00.906Z,2.67
2022-12-04T12:16:00.940Z,2.70
2022-12-04T12:17:00.885Z,2.67
2022-12-04T12:18:00.876Z,2.70
2022-12-04T12:19:00.875Z,2.70
2022-12-04T12:20:00.848Z,2.71
2022-12-04T12:21:00.829Z,2.69
2022-12-04T12:22:05.282Z,2.71
2022-12-04T12:23:01.822Z,2.71
2022-12-04T12:24:00.807Z,2.70
2022-12-04T12:25:00.784Z,2.71
2022-12-04T12:26:00.785Z,2.70
2022-12-04T12:27:00.746Z,2.70
2022-12-04T12:28:00.744Z,2.70
2022-12-04T12:29:00.742Z,2.70
2022-12-04T12:30:00.724Z,2.67
2022-12-04T12:31:05.572Z,2.67
2022-12-04T12:32:01.751Z,2.70
2022-12-04T12:33:00.682Z,2.69
2022-12-04T12:34:00.732Z,2.70
2022-12-04T12:35:00.644Z,2.71
2022-12-04T12:36:00.647Z,2.73
2022-12-04T12:37:01.123Z,2.74
2022-12-04T12:38:00.613Z,2.71
2022-12-04T12:39:00.611Z,2.70
2022-12-04T12:40:00.592Z,2.70
2022-12-04T12:41:00.572Z,2.70
2022-12-04T12:42:00.565Z,2.71
2022-12-04T12:43:00.634Z,2.71
2022-12-04T12:44:00.562Z,2.73
2022-12-04T12:45:00.521Z,2.71
2022-12-04T12:46:00.578Z,2.70
2022-12-04T12:47:00.490Z,2.70
2022-12-04T12:48:00.490Z,2.71
2022-12-04T12:49:00.478Z,2.73
2022-12-04T12:50:00.458Z,2.74
2022-12-04T12:51:22.226Z,2.76
2022-12-04T12:52:01.451Z,2.74
2022-12-04T12:53:00.415Z,2.74
2022-12-04T12:54:00.418Z,2.74
2022-12-04T12:55:00.394Z,2.73
2022-12-04T12:56:00.387Z,2.74
2022-12-04T12:57:00.388Z,2.76
2022-12-04T12:58:00.356Z,2.73
2022-12-04T12:59:00.408Z,2.74
2022-12-04T13:00:00.325Z,2.74
2022-12-04T13:01:00.393Z,2.74
2022-12-04T13:02:01.269Z,2.74
2022-12-04T13:03:00.295Z,2.74
2022-12-04T13:04:00.306Z,2.76
2022-12-04T13:05:00.262Z,2.76
2022-12-04T13:06:00.246Z,2.76
2022-12-04T13:07:00.228Z,2.74
2022-12-04T13:08:00.308Z,2.76
2022-12-04T13:09:00.265Z,2.74
2022-12-04T13:10:00.207Z,2.76
2022-12-04T13:11:00.185Z,2.77
2022-12-04T13:12:00.174Z,2.77
2022-12-04T13:13:00.165Z,2.77
2022-12-04T13:14:00.147Z,2.76
2022-12-04T13:15:00.123Z,2.76
2022-12-04T13:16:00.159Z,2.77
2022-12-04T13:17:00.151Z,2.73
2022-12-04T13:18:00.103Z,2.73
2022-12-04T13:19:00.073Z,2.73
2022-12-04T13:20:01.549Z,2.76
2022-12-04T13:21:00.051Z,2.73
2022-12-04T13:22:00.043Z,2.73
2022-12-04T13:23:00.031Z,2.71
2022-12-04T13:24:00.029Z,2.71
2022-12-04T13:25:00.000Z,2.76
2022-12-04T13:25:59.991Z,2.74
2022-12-04T13:26:59.982Z,2.73
2022-12-04T13:27:59.980Z,2.74
2022-12-04T13:28:59.941Z,2.74
2022-12-04T13:29:59.943Z,2.73
2022-12-04T13:30:59.918Z,2.73
2022-12-04T13:32:00.023Z,2.71
2022-12-04T13:32:59.901Z,2.70
2022-12-04T13:33:59.879Z,2.70
2022-12-04T13:34:59.868Z,2.71
2022-12-04T13:35:59.870Z,2.73
2022-12-04T13:36:59.840Z,2.73
2022-12-04T13:37:59.839Z,2.74
2022-12-04T13:38:59.808Z,2.74
2022-12-04T13:39:59.809Z,2.73
2022-12-04T13:40:59.791Z,2.74
2022-12-04T13:41:59.779Z,2.74
2022-12-04T13:42:59.771Z,2.76
2022-12-04T13:44:05.672Z,2.76
2022-12-04T13:45:00.736Z,2.76
2022-12-04T13:45:59.787Z,2.74
2022-12-04T13:46:59.708Z,2.74
2022-12-04T13:47:59.726Z,2.71
2022-12-04T13:48:59.685Z,2.70
2022-12-04T13:50:03.677Z,2.71
2022-12-04T13:51:00.659Z,2.73
2022-12-04T13:51:59.670Z,2.73
2022-12-04T13:52:59.636Z,2.74
2022-12-04T13:53:59.635Z,2.74
2022-12-04T13:54:59.611Z,2.74
2022-12-04T13:56:04.456Z,2.73
2022-12-04T13:57:00.585Z,2.73
2022-12-04T13:57:59.575Z,2.70
2022-12-04T13:58:59.564Z,2.69
2022-12-04T13:59:59.563Z,2.67
2022-12-04T14:00:59.591Z,2.67
2022-12-04T14:02:02.335Z,2.66
2022-12-04T14:03:00.563Z,2.66
2022-12-04T14:03:59.518Z,2.63
2022-12-04T14:04:59.817Z,2.59
2022-12-04T14:05:59.462Z,2.55
2022-12-04T14:06:59.452Z,2.55
2022-12-04T14:08:04.309Z,2.53
2022-12-04T14:09:00.453Z,2.53
2022-12-04T14:09:59.413Z,2.53
2022-12-04T14:10:59.413Z,2.49
2022-12-04T14:11:59.381Z,2.48
2022-12-04T14:12:59.381Z,2.49
2022-12-04T14:14:03.623Z,2.51
2022-12-04T14:15:00.363Z,2.49
2022-12-04T14:15:59.361Z,2.49
2022-12-04T14:16:59.382Z,2.46
2022-12-04T14:17:59.310Z,2.46
2022-12-04T14:18:59.314Z,2.44
2022-12-04T14:20:04.272Z,2.40
2022-12-04T14:21:00.270Z,2.41
2022-12-04T14:21:59.257Z,2.41
2022-12-04T14:22:59.250Z,2.40
2022-12-04T14:23:59.260Z,2.40
2022-12-04T14:24:59.228Z,2.40
2022-12-04T14:25:59.238Z,2.38
2022-12-04T14:27:14.578Z,2.37
2022-12-04T14:28:00.176Z,2.37
2022-12-04T14:28:59.179Z,2.37
2022-12-04T14:29:59.204Z,2.38
2022-12-04T14:30:59.205Z,2.37
2022-12-04T14:31:59.128Z,2.37
2022-12-04T14:32:59.129Z,2.37
2022-12-04T14:33:59.123Z,2.35
2022-12-04T14:34:59.424Z,2.33
2022-12-04T14:35:59.079Z,2.33
2022-12-04T14:36:59.086Z,2.34
2022-12-04T14:37:59.057Z,2.34
2022-12-04T14:38:59.058Z,2.33
2022-12-04T14:39:59.026Z,2.33
2022-12-04T14:40:59.023Z,2.34
2022-12-04T14:42:03.171Z,2.34
2022-12-04T14:42:58.985Z,2.34
2022-12-04T14:43:59.007Z,2.31
2022-12-04T14:44:59.296Z,2.31
2022-12-04T14:45:58.984Z,2.31
2022-12-04T14:46:58.934Z,2.31
2022-12-04T14:47:58.925Z,2.28
2022-12-04T14:48:58.926Z,2.27
2022-12-04T14:49:58.902Z,2.26
2022-12-04T14:50:58.884Z,2.26
2022-12-04T14:51:58.873Z,2.26
2022-12-04T14:52:58.854Z,2.28
2022-12-04T14:53:58.863Z,2.27
2022-12-04T14:54:58.973Z,2.27
2022-12-04T14:56:01.179Z,2.28
2022-12-04T14:56:59.803Z,2.28
2022-12-04T14:57:58.799Z,2.27
2022-12-04T14:58:58.805Z,2.28
2022-12-04T14:59:58.784Z,2.27
2022-12-04T15:00:58.782Z,2.26
2022-12-04T15:01:58.754Z,2.27
2022-12-04T15:02:58.786Z,2.22
2022-12-04T15:03:58.729Z,2.20
2022-12-04T15:04:59.102Z,2.16
2022-12-04T15:05:58.699Z,2.19
2022-12-04T15:07:00.600Z,2.16
2022-12-04T15:07:58.695Z,2.17
2022-12-04T15:08:58.675Z,2.17
2022-12-04T15:09:58.639Z,2.17
2022-12-04T15:10:58.621Z,2.16
2022-12-04T15:11:58.612Z,2.16
2022-12-04T15:12:58.600Z,2.16
2022-12-04T15:13:58.619Z,2.17
2022-12-04T15:14:58.852Z,2.15
2022-12-04T15:15:58.630Z,2.16
2022-12-04T15:16:58.548Z,2.15
2022-12-04T15:17:58.537Z,2.15
2022-12-04T15:18:58.557Z,2.16
2022-12-04T15:19:58.507Z,2.15
2022-12-04T15:20:58.527Z,2.13
2022-12-04T15:21:58.486Z,2.13
2022-12-04T15:22:58.477Z,2.15
2022-12-04T15:23:58.456Z,2.15
2022-12-04T15:24:58.825Z,2.16
2022-12-04T15:25:58.440Z,2.13
2022-12-04T15:26:58.415Z,2.15
2022-12-04T15:27:58.415Z,2.16
2022-12-04T15:28:58.394Z,2.16
2022-12-04T15:29:58.394Z,2.13
2022-12-04T15:30:58.422Z,2.15
2022-12-04T15:31:58.356Z,2.15
2022-12-04T15:32:58.334Z,2.13
2022-12-04T15:33:58.334Z,2.13
2022-12-04T15:34:58.425Z,2.10
2022-12-04T15:35:58.306Z,2.09
2022-12-04T15:36:58.293Z,2.09
2022-12-04T15:37:58.281Z,2.10
2022-12-04T15:38:58.285Z,2.08
2022-12-04T15:39:58.714Z,2.06
2022-12-04T15:40:58.236Z,2.08
2022-12-04T15:41:58.222Z,2.08
2022-12-04T15:42:58.214Z,2.06
2022-12-04T15:43:58.236Z,2.06
2022-12-04T15:44:58.522Z,2.04
2022-12-04T15:45:58.214Z,2.02
2022-12-04T15:46:58.300Z,2.04
2022-12-04T15:47:58.150Z,2.04
2022-12-04T15:48:58.133Z,2.02
2022-12-04T15:49:58.322Z,2.01
2022-12-04T15:50:58.100Z,2.01
2022-12-04T15:51:58.226Z,1.99
2022-12-04T15:52:58.080Z,2.01
2022-12-04T15:53:58.078Z,1.99
2022-12-04T15:54:58.331Z,2.01
2022-12-04T15:55:58.048Z,1.99
2022-12-04T15:56:58.032Z,1.99
2022-12-04T15:57:58.027Z,1.98
2022-12-04T15:58:57.999Z,1.98
2022-12-04T15:59:57.999Z,1.98
2022-12-04T16:00:57.984Z,1.99
2022-12-04T16:01:58.069Z,1.98
2022-12-04T16:02:57.950Z,1.97
2022-12-04T16:03:57.970Z,1.94
2022-12-04T16:04:58.174Z,1.93
2022-12-04T16:05:57.907Z,1.93
2022-12-04T16:06:57.901Z,1.93
2022-12-04T16:07:57.980Z,1.94
2022-12-04T16:08:57.877Z,1.94
2022-12-04T16:10:02.867Z,1.91
2022-12-04T16:10:58.849Z,1.91
2022-12-04T16:11:57.838Z,1.90
2022-12-04T16:12:57.829Z,1.89
2022-12-04T16:13:57.815Z,1.90
2022-12-04T16:14:58.115Z,1.90
2022-12-04T16:15:57.833Z,1.90
2022-12-04T16:17:02.506Z,1.90
2022-12-04T16:17:58.758Z,1.90
2022-12-04T16:18:57.746Z,1.87
2022-12-04T16:19:57.734Z,1.89
2022-12-04T16:20:57.734Z,1.90
2022-12-04T16:21:57.712Z,1.89
2022-12-04T16:22:57.693Z,1.90
2022-12-04T16:23:57.683Z,1.89
2022-12-04T16:24:57.930Z,1.90
2022-12-04T16:25:57.662Z,1.89
2022-12-04T16:26:57.642Z,1.89
2022-12-04T16:27:57.652Z,1.89
2022-12-04T16:28:57.613Z,1.91
2022-12-04T16:29:57.604Z,1.90
2022-12-04T16:30:57.686Z,1.89
2022-12-04T16:32:02.915Z,1.87
2022-12-04T16:32:58.564Z,1.89
2022-12-04T16:33:57.551Z,1.87
2022-12-04T16:34:57.752Z,1.87
2022-12-04T16:35:57.547Z,1.85
2022-12-04T16:36:57.509Z,1.87
2022-12-04T16:37:57.501Z,1.85
2022-12-04T16:38:57.487Z,1.83
2022-12-04T16:39:57.477Z,1.85
2022-12-04T16:40:57.476Z,1.83
2022-12-04T16:41:57.459Z,1.83
2022-12-04T16:42:57.429Z,1.87
2022-12-04T16:43:57.434Z,1.85
2022-12-04T16:44:57.700Z,1.87
2022-12-04T16:45:57.409Z,1.87
2022-12-04T16:46:57.423Z,1.85
2022-12-04T16:47:57.413Z,1.89
2022-12-04T16:48:58.740Z,1.89
2022-12-04T16:49:57.377Z,1.91
2022-12-04T16:50:57.356Z,1.91
2022-12-04T16:51:57.351Z,1.91
2022-12-04T16:52:57.304Z,1.93
2022-12-04T16:53:57.297Z,1.93
2022-12-04T16:55:01.779Z,1.93
2022-12-04T16:55:58.286Z,1.93
2022-12-04T16:56:57.274Z,1.94
2022-12-04T16:57:57.235Z,1.91
2022-12-04T16:58:57.225Z,1.91
2022-12-04T16:59:57.410Z,1.91
2022-12-04T17:00:57.215Z,1.90
2022-12-04T17:01:57.241Z,1.91
2022-12-04T17:02:57.174Z,1.91
2022-12-04T17:03:57.242Z,1.93
2022-12-04T17:04:57.995Z,1.91
2022-12-04T17:05:57.185Z,1.91
2022-12-04T17:06:57.123Z,1.90
2022-12-04T17:07:57.189Z,1.89
2022-12-04T17:08:57.104Z,1.89
2022-12-04T17:09:57.162Z,1.90
2022-12-04T17:10:57.082Z,1.87
2022-12-04T17:11:57.063Z,1.87
2022-12-04T17:12:57.042Z,1.87
2022-12-04T17:13:57.036Z,1.89
2022-12-04T17:14:57.327Z,1.91
2022-12-04T17:15:57.096Z,1.91
2022-12-04T17:16:56.990Z,1.91
2022-12-04T17:17:56.982Z,1.93
2022-12-04T17:18:56.982Z,1.93
2022-12-04T17:19:57.017Z,1.93
2022-12-04T17:20:56.955Z,1.93
2022-12-04T17:21:56.930Z,1.91
2022-12-04T17:22:56.918Z,1.91
2022-12-04T17:23:56.907Z,1.91
2022-12-04T17:24:56.892Z,1.90
2022-12-04T17:25:56.889Z,1.90
2022-12-04T17:26:56.863Z,1.90
2022-12-04T17:27:56.849Z,1.90
2022-12-04T17:28:56.838Z,1.90
2022-12-04T17:29:56.831Z,1.91
2022-12-04T17:30:56.887Z,1.91
2022-12-04T17:31:56.872Z,1.91
2022-12-04T17:32:56.787Z,1.90
2022-12-04T17:33:56.777Z,1.90
2022-12-04T17:34:56.969Z,1.91
2022-12-04T17:35:56.747Z,1.93
2022-12-04T17:36:56.739Z,1.91
2022-12-04T17:38:02.063Z,1.91
2022-12-04T17:38:57.696Z,1.91
2022-12-04T17:39:56.696Z,1.91
2022-12-04T17:40:56.676Z,1.91
2022-12-04T17:41:56.676Z,1.91
2022-12-04T17:42:56.655Z,1.93
2022-12-04T17:43:56.646Z,1.93
2022-12-04T17:45:58.481Z,1.94
2022-12-04T17:46:58.583Z,1.91
2022-12-04T17:47:58.466Z,1.91
2022-12-04T17:49:01.572Z,1.94
2022-12-04T17:49:59.443Z,1.94
2022-12-04T17:50:58.462Z,1.94
2022-12-04T17:51:58.416Z,1.94
2022-12-04T17:52:58.392Z,1.93
2022-12-04T17:53:58.375Z,1.93
2022-12-04T17:54:58.684Z,1.94
2022-12-04T17:55:58.351Z,1.97
2022-12-04T17:56:58.420Z,1.94
2022-12-04T17:57:58.325Z,1.97
2022-12-04T17:58:58.364Z,1.94
2022-12-04T17:59:58.302Z,1.97
2022-12-04T18:00:58.365Z,1.98
2022-12-04T18:01:58.287Z,1.98
2022-12-04T18:02:58.344Z,1.98
2022-12-04T18:03:58.246Z,1.97
2022-12-04T18:04:58.527Z,1.98
2022-12-04T18:05:58.218Z,1.98
2022-12-04T18:06:58.217Z,2.01
2022-12-04T18:07:58.301Z,1.98
2022-12-04T18:08:58.209Z,1.99
2022-12-04T18:09:58.423Z,2.01
2022-12-04T18:10:58.168Z,1.99
2022-12-04T18:11:58.157Z,2.01
2022-12-04T18:12:58.137Z,1.99
2022-12-04T18:13:58.118Z,2.01
2022-12-04T18:14:58.106Z,1.98
2022-12-04T18:15:58.124Z,1.98
2022-12-04T18:16:58.144Z,2.01
2022-12-04T18:17:58.066Z,1.99
2022-12-04T18:18:58.064Z,2.01
2022-12-04T18:20:03.862Z,2.02
2022-12-04T18:20:59.035Z,2.01
2022-12-04T18:21:58.023Z,2.01
2022-12-04T18:22:58.005Z,2.01
2022-12-04T18:23:57.992Z,2.01
2022-12-04T18:24:57.974Z,2.01
2022-12-04T18:25:57.961Z,1.99
2022-12-04T18:26:57.964Z,1.99
2022-12-04T18:27:57.944Z,1.99
2022-12-04T18:28:57.922Z,1.99
2022-12-04T18:29:58.157Z,2.02
2022-12-04T18:30:57.903Z,2.02
2022-12-04T18:31:57.936Z,2.04
2022-12-04T18:32:57.873Z,2.02
2022-12-04T18:33:57.873Z,2.01
2022-12-04T18:34:57.870Z,2.01
2022-12-04T18:35:57.831Z,2.01
2022-12-04T18:36:57.831Z,2.02
2022-12-04T18:37:57.812Z,2.02
2022-12-04T18:38:57.791Z,2.04
2022-12-04T18:40:02.123Z,2.04
2022-12-04T18:40:58.772Z,2.06
2022-12-04T18:41:57.768Z,2.06
2022-12-04T18:42:57.741Z,2.06
2022-12-04T18:43:57.738Z,2.06
2022-12-04T18:44:57.719Z,2.09
2022-12-04T18:46:01.346Z,2.09
2022-12-04T18:46:58.699Z,2.10
2022-12-04T18:47:57.679Z,2.12
2022-12-04T18:48:57.659Z,2.12
2022-12-04T18:49:57.974Z,2.13
2022-12-04T18:50:57.636Z,2.13